createdAt,value
2017-05-13T00:01:50.784Z,76.84
2017-05-13T00:04:14.658Z,76.07
2017-05-13T00:06:38.541Z,76.75
2017-05-13T00:09:02.322Z,76.37
2017-05-13T00:11:12.176Z,76.07
2017-05-13T00:13:36.039Z,75.21
2017-05-13T00:15:59.920Z,75.31
2017-05-13T00:18:01.234Z,76.17
2017-05-13T00:20:25.038Z,76.17
2017-05-13T00:22:40.522Z,76.46
2017-05-13T00:25:04.394Z,77.33
2017-05-13T00:27:28.271Z,77.09
2017-05-13T00:29:52.151Z,77.42
2017-05-13T00:32:15.922Z,77.04
2017-05-13T00:34:39.695Z,76.94
2017-05-13T00:37:03.473Z,77.13
2017-05-13T00:39:27.255Z,77.04
2017-05-13T00:41:28.554Z,77.04
2017-05-13T00:43:38.372Z,76.94
2017-05-13T00:46:02.225Z,76.65
2017-05-13T00:48:26.098Z,76.56
2017-05-13T00:50:27.393Z,76.56
2017-05-13T00:52:51.220Z,76.52
2017-05-13T00:55:14.997Z,76.07
2017-05-13T00:57:38.767Z,76.14
2017-05-13T00:59:54.132Z,77.09
2017-05-13T01:01:55.535Z,76.04
2017-05-13T01:04:19.368Z,76.04
2017-05-13T01:06:20.646Z,76.81
2017-05-13T01:08:44.505Z,77.38
2017-05-13T01:11:08.267Z,77.58
2017-05-13T01:13:32.045Z,77
2017-05-13T01:15:55.818Z,77.06
2017-05-13T01:18:19.598Z,77.34
2017-05-13T01:20:29.478Z,77.19
2017-05-13T01:22:53.317Z,76.04
2017-05-13T01:25:17.091Z,75.12
2017-05-13T01:27:40.976Z,75.27
2017-05-13T01:30:04.689Z,75.37
2017-05-13T01:32:28.424Z,75.46
2017-05-13T01:34:52.189Z,76.23
2017-05-13T01:36:53.491Z,75.85
2017-05-13T01:39:17.316Z,76.52
2017-05-13T01:41:41.087Z,77.06
2017-05-13T01:44:04.866Z,76.52
2017-05-13T01:46:28.638Z,76.96
2017-05-13T01:48:44.003Z,77.63
2017-05-13T01:50:59.378Z,77.19
2017-05-13T01:53:14.768Z,77.25
2017-05-13T01:55:38.543Z,77.44
2017-05-13T01:58:02.323Z,77.19
2017-05-13T02:00:04.101Z,76.81
2017-05-13T02:02:19.555Z,76.71
2017-05-13T02:04:20.934Z,76.81
2017-05-13T02:06:44.777Z,77.53
2017-05-13T02:08:54.585Z,77.73
2017-05-13T02:11:18.403Z,79.45
2017-05-13T02:13:33.774Z,79.55
2017-05-13T02:15:49.056Z,78.59
2017-05-13T02:18:04.437Z,78.69
2017-05-13T02:20:11.395Z,79.26
2017-05-13T02:22:35.187Z,80.66
2017-05-13T02:24:58.964Z,80.32
2017-05-13T02:27:22.738Z,79.26
2017-05-13T02:29:46.511Z,79.3
2017-05-13T02:32:10.290Z,78.82
2017-05-13T02:34:34.062Z,79.39
2017-05-13T02:36:57.943Z,80.22
2017-05-13T02:39:21.722Z,80.89
2017-05-13T02:41:45.493Z,80.55
2017-05-13T02:44:09.274Z,81.37
2017-05-13T02:46:33.044Z,81.31
2017-05-13T02:48:56.816Z,81.41
2017-05-13T02:51:20.591Z,83.09
2017-05-13T02:53:22.393Z,83.67
2017-05-13T02:55:46.222Z,84.78
2017-05-13T02:58:10.003Z,85.68
2017-05-13T03:00:25.397Z,85.01
2017-05-13T03:02:35.149Z,85.3
2017-05-13T03:04:58.836Z,85.39
2017-05-13T03:07:22.579Z,86.16
2017-05-13T03:09:32.451Z,85.21
2017-05-13T03:11:56.203Z,85.21
2017-05-13T03:14:19.968Z,85.49
2017-05-13T03:16:43.747Z,85.21
2017-05-13T03:18:59.015Z,87.31
2017-05-13T03:21:22.688Z,86.93
2017-05-13T03:23:37.963Z,86.64
2017-05-13T03:26:01.736Z,86.25
2017-05-13T03:28:25.512Z,85.53
2017-05-13T03:30:49.181Z,85.78
2017-05-13T03:33:12.963Z,86.64
2017-05-13T03:35:36.633Z,86.35
2017-05-13T03:38:00.401Z,86.16
2017-05-13T03:40:24.184Z,86.45
2017-05-13T03:42:39.459Z,86.64
2017-05-13T03:44:54.737Z,86.35
2017-05-13T03:47:18.508Z,86.93
2017-05-13T03:49:42.176Z,85.21
2017-05-13T03:52:05.840Z,84.95
2017-05-13T03:54:29.628Z,85.63
2017-05-13T03:56:44.910Z,85.01
2017-05-13T03:58:54.791Z,85.78
2017-05-13T04:01:10.125Z,86.35
2017-05-13T04:03:33.799Z,85.25
2017-05-13T04:05:49.076Z,84.86
2017-05-13T04:08:12.747Z,84.09
2017-05-13T04:10:36.431Z,85.15
2017-05-13T04:13:00.192Z,83.61
2017-05-13T04:15:23.964Z,83.61
2017-05-13T04:17:47.746Z,83.42
2017-05-13T04:20:03.021Z,83.52
2017-05-13T04:22:26.691Z,82.6
2017-05-13T04:24:50.364Z,83.23
2017-05-13T04:26:43.674Z,82.41
2017-05-13T04:29:07.388Z,82.85
2017-05-13T04:31:31.168Z,84.15
2017-05-13T04:33:46.444Z,84.15
2017-05-13T04:36:10.220Z,81.49
2017-05-13T04:38:34.043Z,79.57
2017-05-13T04:40:57.766Z,78.7
2017-05-13T04:43:21.546Z,78.03
2017-05-13T04:45:45.321Z,77.88
2017-05-13T04:48:09.100Z,75.94
2017-05-13T04:50:10.367Z,73.44
2017-05-13T04:52:11.603Z,72.67
2017-05-13T04:54:35.474Z,71.4
2017-05-13T04:56:45.285Z,71.26
2017-05-13T04:59:09.198Z,69.85
2017-05-13T05:01:33.175Z,70.4
2017-05-13T05:03:57.158Z,69.28
2017-05-13T05:06:21.037Z,68.51
2017-05-13T05:08:44.971Z,70.3
2017-05-13T05:11:09.005Z,69.67
2017-05-13T05:13:32.978Z,69.47
2017-05-13T05:15:56.960Z,69.28
2017-05-13T05:18:12.476Z,68.16
2017-05-13T05:20:36.414Z,67.39
2017-05-13T05:23:00.391Z,63.82
2017-05-13T05:25:24.375Z,52.71
2017-05-13T05:27:40.201Z,42.74
2017-05-13T05:29:56.088Z,32.25
2017-05-13T05:32:20.698Z,24.96
2017-05-13T05:34:45.605Z,22.42
2017-05-13T05:37:10.741Z,20.68
2017-05-13T05:39:36.048Z,19.13
2017-05-13T05:41:46.406Z,16.8
2017-05-13T05:44:12.146Z,15.14
2017-05-13T05:46:37.982Z,16.69
2017-05-13T05:49:04.016Z,15.53
2017-05-13T05:51:30.149Z,17.26
2017-05-13T05:53:32.041Z,20.06
2017-05-13T05:55:58.136Z,22.75
2017-05-13T05:58:24.050Z,26.69
2017-05-13T06:00:35.252Z,31.26
2017-05-13T06:02:43.916Z,34.42
2017-05-13T06:05:09.342Z,40.5
2017-05-13T06:07:34.658Z,42.23
2017-05-13T06:10:01.630Z,44.05
2017-05-13T06:12:26.676Z,47.45
2017-05-13T06:14:36.856Z,48.69
2017-05-13T06:17:01.609Z,49.95
2017-05-13T06:19:17.805Z,50.5
2017-05-13T06:21:33.896Z,52.02
2017-05-13T06:23:35.414Z,51.54
2017-05-13T06:25:45.473Z,51.64
2017-05-13T06:28:09.993Z,52.77
2017-05-13T06:30:34.413Z,51.35
2017-05-13T06:32:35.873Z,55.23
2017-05-13T06:35:00.321Z,55.04
2017-05-13T06:37:24.810Z,41.46
2017-05-13T06:39:40.929Z,30.67
2017-05-13T06:42:05.628Z,29.75
2017-05-13T06:44:30.642Z,24.52
2017-05-13T06:46:55.864Z,18.63
2017-05-13T06:49:21.295Z,21.33
2017-05-13T06:51:46.852Z,29.94
2017-05-13T06:54:12.431Z,37.18
2017-05-13T06:56:37.846Z,37.93
2017-05-13T06:58:54.629Z,38.81
2017-05-13T07:01:02.831Z,41.3
2017-05-13T07:03:27.939Z,42.13
2017-05-13T07:05:44.431Z,43.57
2017-05-13T07:08:09.446Z,42.23
2017-05-13T07:10:34.325Z,41.3
2017-05-13T07:12:59.239Z,37.33
2017-05-13T07:15:24.240Z,38.73
2017-05-13T07:17:49.139Z,41.78
2017-05-13T07:20:14.039Z,40.56
2017-05-13T07:22:38.946Z,37.52
2017-05-13T07:24:49.241Z,34.09
2017-05-13T07:27:14.164Z,33.12
2017-05-13T07:29:39.214Z,34.28
2017-05-13T07:32:04.152Z,34.29
2017-05-13T07:34:29.241Z,36.37
2017-05-13T07:36:54.324Z,33.51
2017-05-13T07:39:19.440Z,33.89
2017-05-13T07:41:36.048Z,32.07
2017-05-13T07:44:02.178Z,34.83
2017-05-13T07:46:27.184Z,34.16
2017-05-13T07:48:52.187Z,34.4
2017-05-13T07:51:17.214Z,34.22
2017-05-13T07:53:42.236Z,33.93
2017-05-13T07:56:07.299Z,34.06
2017-05-13T07:58:09.426Z,30.43
2017-05-13T08:00:34.573Z,31.54
2017-05-13T08:02:51.219Z,35.08
2017-05-13T08:04:52.853Z,33.48
2017-05-13T08:06:45.996Z,33.09
2017-05-13T08:10:47.069Z,32.17
2017-05-13T08:13:12.197Z,33.87
2017-05-13T08:15:37.231Z,33.87
2017-05-13T08:18:02.291Z,35.69
2017-05-13T08:20:04.429Z,39.86
2017-05-13T08:21:57.547Z,38.26
2017-05-13T08:24:22.507Z,37.5
2017-05-13T08:26:47.414Z,33.98
2017-05-13T08:29:12.404Z,31.98
2017-05-13T08:31:28.943Z,33.22
2017-05-13T08:33:53.948Z,34.36
2017-05-13T08:36:18.964Z,33.61
2017-05-13T08:38:43.966Z,32.07
2017-05-13T08:41:08.971Z,29.5
2017-05-13T08:43:34.093Z,27.09
2017-05-13T08:45:59.339Z,27.88
2017-05-13T08:48:24.587Z,27.95
2017-05-13T08:50:49.958Z,26.07
2017-05-13T08:53:15.286Z,26.61
2017-05-13T08:55:09.745Z,30.23
2017-05-13T08:57:35.091Z,31.96
2017-05-13T09:00:00.384Z,29.59
2017-05-13T09:02:25.685Z,27.19
2017-05-13T09:04:42.508Z,24.12
2017-05-13T09:07:07.909Z,22.67
2017-05-13T09:09:33.342Z,25.07
2017-05-13T09:11:58.742Z,30.61
2017-05-13T09:14:25.556Z,30.72
2017-05-13T09:16:50.787Z,26.91
2017-05-13T09:19:16.139Z,28.44
2017-05-13T09:21:41.428Z,24.3
2017-05-13T09:23:58.236Z,23.62
2017-05-13T09:26:23.648Z,23.42
2017-05-13T09:28:40.558Z,27.17
2017-05-13T09:30:51.369Z,23.83
2017-05-13T09:33:16.851Z,23.82
2017-05-13T09:35:42.368Z,24.38
2017-05-13T09:38:07.883Z,26.5
2017-05-13T09:40:33.393Z,25.35
2017-05-13T09:42:50.295Z,26.31
2017-05-13T09:45:15.713Z,26.59
2017-05-13T09:47:32.630Z,26.98
2017-05-13T09:49:58.037Z,27.04
2017-05-13T09:52:23.353Z,27.55
2017-05-13T09:54:48.672Z,27.84
2017-05-13T09:57:05.481Z,30.4
2017-05-13T09:59:30.702Z,31.65
2017-05-13T10:01:55.882Z,29.95
2017-05-13T10:04:21.098Z,30.88
2017-05-13T10:06:46.192Z,33.83
2017-05-13T10:09:11.302Z,33.56
2017-05-13T10:11:37.439Z,31.85
2017-05-13T10:13:48.293Z,32.52
2017-05-13T10:16:15.412Z,34.42
2017-05-13T10:18:40.454Z,34.91
2017-05-13T10:21:05.568Z,36.43
2017-05-13T10:23:22.059Z,37.54
2017-05-13T10:25:32.756Z,36.32
2017-05-13T10:27:57.727Z,37.68
2017-05-13T10:30:22.748Z,38.54
2017-05-13T10:32:47.636Z,38.42
2017-05-13T10:34:50.500Z,38.03
2017-05-13T10:37:06.936Z,37.58
2017-05-13T10:39:31.812Z,37.54
2017-05-13T10:41:56.714Z,37.35
2017-05-13T10:44:21.639Z,36.28
2017-05-13T10:46:47.941Z,36.69
2017-05-13T10:49:12.845Z,38.03
2017-05-13T10:51:37.750Z,39.1
2017-05-13T10:54:02.551Z,35.94
2017-05-13T10:56:27.443Z,36.1
2017-05-13T10:58:52.259Z,33.53
2017-05-13T11:01:17.152Z,36.1
2017-05-13T11:03:18.737Z,34.25
2017-05-13T11:05:20.771Z,34.06
2017-05-13T11:07:45.569Z,37.35
2017-05-13T11:10:10.467Z,35.42
2017-05-13T11:12:27.768Z,36.46
2017-05-13T11:14:52.602Z,38.11
2017-05-13T11:17:17.387Z,35.29
2017-05-13T11:19:19.487Z,37.43
2017-05-13T11:21:35.863Z,35.7
2017-05-13T11:24:00.655Z,36.47
2017-05-13T11:26:16.990Z,36.57
2017-05-13T11:28:41.752Z,34.94
2017-05-13T11:31:06.553Z,37.52
2017-05-13T11:33:31.347Z,37.02
2017-05-13T11:35:56.145Z,35.52
2017-05-13T11:38:20.950Z,35.83
2017-05-13T11:40:37.247Z,34.27
2017-05-13T11:42:45.078Z,35.58
2017-05-13T11:45:09.947Z,37.43
2017-05-13T11:47:34.763Z,37.41
2017-05-13T11:49:59.545Z,35.89
2017-05-13T11:52:01.142Z,35.7
2017-05-13T11:54:25.999Z,35.78
2017-05-13T11:56:36.595Z,36.55
2017-05-13T11:59:01.367Z,36.73
2017-05-13T12:01:26.156Z,37.01
2017-05-13T12:03:50.969Z,37.22
2017-05-13T12:06:15.652Z,36.36
2017-05-13T12:08:40.447Z,37.34
2017-05-13T12:11:05.250Z,37.41
2017-05-13T12:13:30.054Z,38.64
2017-05-13T12:15:54.852Z,38.25
2017-05-13T12:18:19.639Z,37.37
2017-05-13T12:20:44.352Z,38.32
2017-05-13T12:23:09.053Z,39.03
2017-05-13T12:25:33.730Z,37.39
2017-05-13T12:27:58.426Z,38.37
2017-05-13T12:30:23.132Z,38.15
2017-05-13T12:32:47.810Z,37.78
2017-05-13T12:35:12.520Z,37.14
2017-05-13T12:37:37.225Z,36.08
2017-05-13T12:40:01.909Z,36.2
2017-05-13T12:42:26.620Z,34.88
2017-05-13T12:44:51.303Z,35.86
2017-05-13T12:47:16.008Z,36.26
2017-05-13T12:49:32.316Z,35.31
2017-05-13T12:51:57.111Z,34.42
2017-05-13T12:54:13.431Z,33.46
2017-05-13T12:56:38.213Z,33.49
2017-05-13T12:59:03.005Z,34.86
2017-05-13T13:01:27.796Z,34.76
2017-05-13T13:03:52.705Z,35.89
2017-05-13T13:07:53.999Z,37.35
2017-05-13T13:10:18.871Z,38.4
2017-05-13T13:12:43.682Z,39.26
2017-05-13T13:15:08.457Z,37.16
2017-05-13T13:17:10.563Z,38.4
2017-05-13T13:19:35.434Z,36.36
2017-05-13T13:21:37.435Z,37.34
2017-05-13T13:24:02.288Z,38.19
2017-05-13T13:26:27.093Z,39.51
2017-05-13T13:28:51.889Z,39.24
2017-05-13T13:31:16.693Z,36.65
2017-05-13T13:33:41.417Z,37.2
2017-05-13T13:36:06.184Z,35.97
2017-05-13T13:38:22.475Z,36.91
2017-05-13T13:40:38.705Z,38.96
2017-05-13T13:43:03.478Z,36.73
2017-05-13T13:45:28.278Z,35.78
2017-05-13T13:47:53.077Z,38.17
2017-05-13T13:50:09.375Z,37.59
2017-05-13T13:52:34.063Z,38.71
2017-05-13T13:54:58.779Z,37.32
2017-05-13T13:57:23.464Z,37.32
2017-05-13T13:59:48.156Z,34.67
2017-05-13T14:01:58.816Z,34.11
2017-05-13T14:04:23.533Z,36.91
2017-05-13T14:06:48.219Z,36.89
2017-05-13T14:09:12.933Z,36
2017-05-13T14:11:37.598Z,36.02
2017-05-13T14:14:02.222Z,34.46
2017-05-13T14:16:26.897Z,34.19
2017-05-13T14:18:51.489Z,34.64
2017-05-13T14:21:07.618Z,37.94
2017-05-13T14:23:32.210Z,36.68
2017-05-13T14:25:33.760Z,37.37
2017-05-13T14:27:58.324Z,33.76
2017-05-13T14:30:23.021Z,36.4
2017-05-13T14:32:39.230Z,37.94
2017-05-13T14:35:03.790Z,37.16
2017-05-13T14:37:28.402Z,36.79
2017-05-13T14:39:36.149Z,37.1
2017-05-13T14:42:00.697Z,35.14
2017-05-13T14:44:25.399Z,33.39
2017-05-13T14:46:50.093Z,34.36
2017-05-13T14:49:14.782Z,33.9
2017-05-13T14:51:39.500Z,34.75
2017-05-13T14:54:04.189Z,34.46
2017-05-13T14:56:20.364Z,35.24
2017-05-13T14:58:44.966Z,33.59
2017-05-13T15:00:46.476Z,35.61
2017-05-13T15:03:11.114Z,34.08
2017-05-13T15:05:35.716Z,33.88
2017-05-13T15:08:00.309Z,33.39
2017-05-13T15:10:24.899Z,36.21
2017-05-13T15:12:49.632Z,35.33
2017-05-13T15:15:14.452Z,34.85
2017-05-13T15:17:38.912Z,32.89
2017-05-13T15:20:03.587Z,31.85
2017-05-13T15:22:28.288Z,32.82
2017-05-13T15:24:52.975Z,34.11
2017-05-13T15:27:17.670Z,32.45
2017-05-13T15:29:42.257Z,31.37
2017-05-13T15:32:06.973Z,31.88
2017-05-13T15:34:31.661Z,33.31
2017-05-13T15:36:56.353Z,33.8
2017-05-13T15:39:21.079Z,31.29
2017-05-13T15:41:45.654Z,31.1
2017-05-13T15:44:10.237Z,33.91
2017-05-13T15:46:12.262Z,32.75
2017-05-13T15:48:37.004Z,31.77
2017-05-13T15:50:53.195Z,34.97
2017-05-13T15:53:17.897Z,33.53
2017-05-13T15:55:42.591Z,34.87
2017-05-13T15:58:07.202Z,32.44
2017-05-13T16:00:31.886Z,33.28
2017-05-13T16:02:56.482Z,35.21
2017-05-13T16:05:21.174Z,35.69
2017-05-13T16:07:45.769Z,37.24
2017-05-13T16:09:55.815Z,37.35
2017-05-13T16:11:57.366Z,36
2017-05-13T16:14:13.563Z,37.63
2017-05-13T16:16:38.159Z,38.96
2017-05-13T16:19:02.753Z,37.51
2017-05-13T16:21:27.243Z,38.19
2017-05-13T16:23:51.840Z,37.41
2017-05-13T16:26:16.321Z,39.84
2017-05-13T16:28:40.915Z,37.9
2017-05-13T16:31:05.372Z,38.09
2017-05-13T16:33:29.903Z,37.71
2017-05-13T16:35:54.371Z,37.23
2017-05-13T16:38:18.889Z,38.58
2017-05-13T16:40:43.386Z,37.9
2017-05-13T16:43:07.874Z,37.32
2017-05-13T16:45:32.364Z,37.9
2017-05-13T16:47:57.870Z,38.37
2017-05-13T16:50:22.374Z,40.59
2017-05-13T16:52:46.861Z,39.92
2017-05-13T16:55:11.353Z,40.86
2017-05-13T16:57:35.845Z,40.96
2017-05-13T17:00:00.336Z,42.4
2017-05-13T17:02:24.823Z,41.91
2017-05-13T17:04:49.313Z,42.37
2017-05-13T17:07:13.809Z,43.24
2017-05-13T17:09:38.196Z,43.99
2017-05-13T17:11:39.651Z,44.87
2017-05-13T17:14:04.033Z,46.3
2017-05-13T17:16:28.423Z,46.88
2017-05-13T17:18:38.497Z,47.89
2017-05-13T17:21:02.862Z,48.95
2017-05-13T17:23:27.254Z,49.82
2017-05-13T17:25:43.082Z,50.4
2017-05-13T17:28:07.431Z,51.25
2017-05-13T17:30:31.712Z,52.59
2017-05-13T17:32:41.706Z,52.4
2017-05-13T17:35:06.048Z,52.31
2017-05-13T17:37:30.332Z,53.15
2017-05-13T17:39:54.515Z,53.05
2017-05-13T17:42:18.800Z,51.99
2017-05-13T17:44:43.084Z,53.22
2017-05-13T17:47:07.385Z,53.53
2017-05-13T17:49:31.664Z,53.15
2017-05-13T17:51:55.949Z,54.47
2017-05-13T17:54:11.743Z,56.79
2017-05-13T17:56:27.517Z,58.97
2017-05-13T17:58:51.817Z,61.35
2017-05-13T18:01:15.995Z,65.91
2017-05-13T18:03:40.178Z,68.03
2017-05-13T18:06:04.367Z,69.44
2017-05-13T18:08:28.536Z,69.98
2017-05-13T18:10:52.639Z,70.27
2017-05-13T18:12:53.998Z,69.89
2017-05-13T18:15:18.058Z,70.94
2017-05-13T18:17:42.136Z,70.75
2017-05-13T18:20:06.212Z,71.77
2017-05-13T18:22:30.294Z,73.31
2017-05-13T18:24:31.652Z,73.5
2017-05-13T18:26:55.723Z,72.83
2017-05-13T18:29:19.701Z,75.1
2017-05-13T18:31:21.072Z,75.57
2017-05-13T18:33:45.031Z,76.44
2017-05-13T18:36:09.011Z,77.56
2017-05-13T18:38:24.591Z,77.56
2017-05-13T18:40:40.150Z,77.75
2017-05-13T18:43:04.050Z,79.28
2017-05-13T18:45:28.036Z,79.47
2017-05-13T18:47:52.009Z,79.76
2017-05-13T18:50:16.029Z,78.9
2017-05-13T18:52:31.475Z,81.49
2017-05-13T18:54:55.344Z,81.35
2017-05-13T18:57:10.810Z,81.78
2017-05-13T18:59:34.702Z,80.82
2017-05-13T19:01:58.576Z,80.19
2017-05-13T19:04:22.561Z,80.91
2017-05-13T19:06:46.540Z,81.68
2017-05-13T19:09:10.513Z,81.53
2017-05-13T19:11:34.390Z,82.98
2017-05-13T19:13:49.850Z,82.74
2017-05-13T19:16:13.750Z,81.01
2017-05-13T19:18:37.641Z,81.97
2017-05-13T19:20:53.080Z,81.97
2017-05-13T19:22:54.486Z,81.1
2017-05-13T19:25:18.442Z,80.19
2017-05-13T19:27:42.433Z,81.68
2017-05-13T19:30:06.396Z,80.57
2017-05-13T19:32:30.283Z,79.32
2017-05-13T19:36:30.135Z,81.01
2017-05-13T19:38:54.088Z,81.1
2017-05-13T19:41:18.062Z,81.1
2017-05-13T19:43:41.967Z,81.2
2017-05-13T19:46:05.812Z,80.05
2017-05-13T19:48:29.715Z,79.8
2017-05-13T19:50:53.571Z,79.03
2017-05-13T19:53:17.543Z,79.71
2017-05-13T19:55:41.437Z,79.61
2017-05-13T19:58:05.401Z,79.22
2017-05-13T20:00:29.383Z,78.55
2017-05-13T20:02:53.261Z,78.55
2017-05-13T20:05:17.141Z,78.65
2017-05-13T20:07:41.111Z,79.61
2017-05-13T20:09:56.602Z,80.47
2017-05-13T20:12:20.474Z,80.91
2017-05-13T20:14:44.455Z,81.01
2017-05-13T20:17:08.439Z,79.32
2017-05-13T20:19:23.929Z,79.42
2017-05-13T20:21:47.796Z,79.32
2017-05-13T20:24:11.775Z,79.67
2017-05-13T20:26:35.767Z,78.94
2017-05-13T20:28:59.741Z,78.84
2017-05-13T20:31:23.712Z,78.94
2017-05-13T20:33:47.705Z,79.52
2017-05-13T20:36:11.604Z,79.99
2017-05-13T20:38:35.565Z,79.86
2017-05-13T20:40:59.449Z,80.73
2017-05-13T20:43:23.417Z,79.8
2017-05-13T20:45:47.398Z,79.9
2017-05-13T20:47:49.233Z,79.99
2017-05-13T20:50:13.230Z,79.99
2017-05-13T20:52:37.203Z,81.3
2017-05-13T20:55:01.083Z,81.34
2017-05-13T20:57:16.558Z,82.93
2017-05-13T20:59:40.437Z,82.64
2017-05-13T21:03:32.216Z,81.59
2017-05-13T21:05:56.166Z,81.97
2017-05-13T21:08:20.045Z,81.59
2017-05-13T21:10:43.916Z,82.45
2017-05-13T21:13:07.784Z,81.34
2017-05-13T21:15:31.659Z,81.24
2017-05-13T21:17:55.538Z,80.66
2017-05-13T21:20:10.926Z,81.05
2017-05-13T21:22:34.802Z,80.57
2017-05-13T21:24:50.349Z,80.28
2017-05-13T21:27:14.270Z,80.76
2017-05-13T21:29:38.143Z,80.66
2017-05-13T21:32:01.993Z,80.96
2017-05-13T21:34:25.880Z,80.96
2017-05-13T21:36:41.368Z,80.96
2017-05-13T21:38:56.849Z,80.66
2017-05-13T21:40:58.188Z,81.34
2017-05-13T21:43:22.186Z,81.15
2017-05-13T21:45:46.179Z,81.59
2017-05-13T21:48:10.140Z,82.07
2017-05-13T21:50:34.014Z,83.03
2017-05-13T21:52:57.889Z,83.6
2017-05-13T21:55:13.366Z,83.22
2017-05-13T21:57:37.245Z,83.75
2017-05-13T21:59:44.232Z,84.81
2017-05-13T22:01:59.688Z,85.38
2017-05-13T22:04:15.070Z,84.08
2017-05-13T22:06:16.358Z,84.56
2017-05-13T22:08:40.202Z,84.66
2017-05-13T22:10:50.502Z,85.04
2017-05-13T22:13:05.944Z,84.37
2017-05-13T22:15:29.816Z,84.27
2017-05-13T22:17:31.640Z,84.37
2017-05-13T22:19:32.942Z,83.8
2017-05-13T22:21:56.907Z,83.22
2017-05-13T22:24:20.782Z,83.41
2017-05-13T22:26:44.658Z,83.98
2017-05-13T22:29:08.539Z,84.27
2017-05-13T22:31:32.415Z,84.75
2017-05-13T22:33:56.291Z,85.81
2017-05-13T22:36:20.169Z,85.14
2017-05-13T22:38:35.664Z,84.85
2017-05-13T22:40:59.532Z,84.95
2017-05-13T22:43:23.399Z,85.62
2017-05-13T22:45:47.278Z,86.25
2017-05-13T22:48:11.161Z,86.25
2017-05-13T22:50:35.040Z,86.44
2017-05-13T22:52:58.910Z,86.72
2017-05-13T22:55:14.390Z,86.05
2017-05-13T22:57:38.274Z,86.63
2017-05-13T22:59:39.574Z,86.82
2017-05-13T23:02:03.402Z,87.11
2017-05-13T23:04:27.270Z,87.74
2017-05-13T23:06:51.148Z,88.07
2017-05-13T23:09:15.022Z,87.78
2017-05-13T23:11:24.829Z,86.34
2017-05-13T23:13:48.644Z,85.77
2017-05-13T23:16:04.028Z,86.72
2017-05-13T23:18:27.715Z,87.21
2017-05-13T23:20:37.493Z,87.59
2017-05-13T23:23:01.323Z,87.4
2017-05-13T23:25:11.051Z,87.98
2017-05-13T23:27:34.839Z,87.4
2017-05-13T23:29:58.604Z,86.92
2017-05-13T23:32:13.992Z,86.72
2017-05-13T23:34:37.766Z,86.92
2017-05-13T23:37:01.534Z,86.72
2017-05-13T23:39:25.311Z,87.11
2017-05-13T23:41:49.094Z,86.05
2017-05-13T23:44:12.872Z,86.82
2017-05-13T23:46:36.654Z,87.11
2017-05-13T23:49:00.407Z,87.11
2017-05-13T23:51:24.205Z,87.59
2017-05-13T23:53:47.964Z,87.01
2017-05-13T23:56:11.738Z,86.82
2017-05-13T23:58:35.522Z,86.92
